Main page
METAR-TAF:

METAR-TAF

Airports :

Islay Airport

Islay, Scotland

latitude: 55-40-55N, longitude: 006-15-24W, elevation: 16 m

Current weather observation

The report was made 35 minutes ago, at 22:20 UTC
Wind 12 kt from the East, varying between East/Northeast and Southeast
Temperature 6°C
Humidity 75%
Pressure 1000 hPa
Visibility 10 km or more

METAR: EGPI 212220Z AUTO 10012KT 060V130 9999 FEW028/// 06/02 Q1000

Time: 22:55 (22:55 UTC)

Forecast

The report was made 8 hours and 54 minutes ago, at 14:01 UTC
Forecast valid from 21 at 15 UTC to 21 at 19 UTC
Wind 12 kt from the East/Southeast
Visibility 10 km or more
Scattered clouds at a height of 2500 ft
Temporary
from 21 at 15 UTC to 21 at 19 UTC
Wind 18 kt from the East/Southeast with gusts up to 28 kt

TAF: EGPI 211401Z 2115/2119 11012KT 9999 SCT025 TEMPO 2115/2119 12018G28KT

Weather observations and forecasts of more than 4000 airports (METAR and TAF reports).

The available stations are represented by yellow and red dots on the map.

Hover mouse over dot to see the name of the station.

Then click to see weather observations and forecasts.

To change the map : click on the green buttons with a black cross to zoom in, on the green button with a dash to zoom out, or on the green arrows for adjacent maps.


METAR-TAF: